createdAt,value
2023-03-16T00:00:18.278Z,4.80
2023-03-16T00:02:45.098Z,3.40
2023-03-16T00:05:13.856Z,3.10
2023-03-16T00:07:42.275Z,3.35
2023-03-16T00:10:12.541Z,3.63
2023-03-16T00:12:40.039Z,16.88
2023-03-16T00:15:07.447Z,6.13
2023-03-16T00:17:34.938Z,5.00
2023-03-16T00:20:06.916Z,3.38
2023-03-16T00:22:34.236Z,3.70
2023-03-16T00:25:01.068Z,3.95
2023-03-16T00:27:28.108Z,3.00
2023-03-16T00:29:57.849Z,2.90
2023-03-16T00:32:32.148Z,4.47
2023-03-16T00:34:59.645Z,10.18
2023-03-16T00:37:27.409Z,16.98
2023-03-16T00:39:56.540Z,11.55
2023-03-16T00:42:28.481Z,10.75
2023-03-16T00:44:57.854Z,16.20
2023-03-16T00:47:26.515Z,10.27
2023-03-16T00:49:53.348Z,10.88
2023-03-16T00:52:20.529Z,11.90
2023-03-16T00:54:47.976Z,11.35
2023-03-16T00:57:19.013Z,7.28
2023-03-16T00:59:46.655Z,6.25
2023-03-16T01:02:15.052Z,3.50
2023-03-16T01:04:43.026Z,3.08
2023-03-16T01:07:13.001Z,2.47
2023-03-16T01:09:41.168Z,3.05
2023-03-16T01:12:11.428Z,3.33
2023-03-16T01:14:38.867Z,2.85
2023-03-16T01:17:08.728Z,3.17
2023-03-16T01:19:38.771Z,3.28
2023-03-16T01:22:06.832Z,3.15
2023-03-16T01:24:35.020Z,3.00
2023-03-16T01:27:02.258Z,2.90
2023-03-16T01:29:29.983Z,3.08
2023-03-16T01:31:57.124Z,3.40
2023-03-16T01:34:24.026Z,3.50
2023-03-16T01:36:51.781Z,3.42
2023-03-16T01:39:18.765Z,3.42
2023-03-16T01:41:46.755Z,2.83
2023-03-16T01:44:16.497Z,3.20
2023-03-16T01:46:44.418Z,3.08
2023-03-16T01:49:12.449Z,3.50
2023-03-16T01:51:57.043Z,3.30
2023-03-16T01:54:36.413Z,3.90
2023-03-16T01:57:10.440Z,4.63
2023-03-16T01:59:53.034Z,4.90
2023-03-16T02:02:23.384Z,4.22
2023-03-16T02:05:06.324Z,4.32
2023-03-16T02:07:38.481Z,3.70
2023-03-16T02:10:07.710Z,3.15
2023-03-16T02:12:34.538Z,3.10
2023-03-16T02:15:01.306Z,2.90
2023-03-16T02:17:30.344Z,2.70
2023-03-16T02:20:06.120Z,2.45
2023-03-16T02:22:36.121Z,2.47
2023-03-16T02:25:03.320Z,2.65
2023-03-16T02:27:41.717Z,2.85
2023-03-16T02:30:15.183Z,2.83
2023-03-16T02:32:42.751Z,2.58
2023-03-16T02:35:10.556Z,2.80
2023-03-16T02:37:37.308Z,2.40
2023-03-16T02:40:17.642Z,2.53
2023-03-16T02:42:44.774Z,3.25
2023-03-16T02:45:12.415Z,3.92
2023-03-16T02:47:44.555Z,4.75
2023-03-16T02:50:13.023Z,11.82
2023-03-16T02:52:41.296Z,8.13
2023-03-16T02:55:08.955Z,7.78
2023-03-16T02:57:35.956Z,4.35
2023-03-16T03:00:07.787Z,3.40
2023-03-16T03:02:34.622Z,3.35
2023-03-16T03:05:02.143Z,3.67
2023-03-16T03:07:32.026Z,3.28
2023-03-16T03:09:59.130Z,3.60
2023-03-16T03:12:25.869Z,3.08
2023-03-16T03:14:52.709Z,3.47
2023-03-16T03:17:19.674Z,4.25
2023-03-16T03:19:46.980Z,3.97
2023-03-16T03:22:18.593Z,3.50
2023-03-16T03:27:12.304Z,3.17
2023-03-16T03:29:39.178Z,3.08
2023-03-16T03:32:06.823Z,3.42
2023-03-16T03:34:33.662Z,3.63
2023-03-16T03:37:01.236Z,3.05
2023-03-16T03:39:28.183Z,3.75
2023-03-16T03:41:54.951Z,3.70
2023-03-16T03:44:22.879Z,4.00
2023-03-16T03:46:50.149Z,3.30
2023-03-16T03:49:17.266Z,3.88
2023-03-16T03:51:44.822Z,4.07
2023-03-16T03:54:11.706Z,4.30
2023-03-16T03:56:38.662Z,3.85
2023-03-16T03:59:05.816Z,4.25
2023-03-16T04:01:32.729Z,4.32
2023-03-16T04:03:59.651Z,3.97
2023-03-16T04:06:26.489Z,4.55
2023-03-16T04:08:54.524Z,4.45
2023-03-16T04:11:21.632Z,4.47
2023-03-16T04:13:50.973Z,4.72
2023-03-16T04:16:17.912Z,4.50
2023-03-16T04:18:46.230Z,5.30
2023-03-16T04:21:16.829Z,5.93
2023-03-16T04:23:44.656Z,4.30
2023-03-16T04:26:11.697Z,5.65
2023-03-16T04:28:38.982Z,6.47
2023-03-16T04:31:10.816Z,5.80
2023-03-16T04:33:39.304Z,5.00
2023-03-16T04:36:07.335Z,6.22
2023-03-16T04:38:36.001Z,6.32
2023-03-16T04:41:04.928Z,6.10
2023-03-16T04:43:34.607Z,6.07
2023-03-16T04:46:02.458Z,6.50
2023-03-16T04:48:30.757Z,7.07
2023-03-16T04:50:57.575Z,6.80
2023-03-16T04:53:24.808Z,7.18
2023-03-16T04:55:51.553Z,7.55
2023-03-16T04:58:18.289Z,7.80
2023-03-16T05:00:45.694Z,8.45
2023-03-16T05:03:12.579Z,7.43
2023-03-16T05:05:39.830Z,8.13
2023-03-16T05:08:07.571Z,8.63
2023-03-16T05:10:34.885Z,8.73
2023-03-16T05:13:01.635Z,9.27
2023-03-16T05:15:28.560Z,10.38
2023-03-16T05:17:56.227Z,10.65
2023-03-16T05:20:24.031Z,9.57
2023-03-16T05:22:51.950Z,8.68
2023-03-16T05:25:19.876Z,9.75
2023-03-16T05:27:52.064Z,10.07
2023-03-16T05:30:20.159Z,11.02
2023-03-16T05:32:47.211Z,11.02
2023-03-16T05:35:14.374Z,10.85
2023-03-16T05:37:41.878Z,10.90
2023-03-16T05:40:18.255Z,10.60
2023-03-16T05:42:46.959Z,10.65
2023-03-16T05:45:15.704Z,11.93
2023-03-16T05:47:43.923Z,11.55
2023-03-16T05:50:12.759Z,10.93
2023-03-16T05:52:40.336Z,11.13
2023-03-16T05:55:08.812Z,10.70
2023-03-16T05:57:35.810Z,11.38
2023-03-16T06:00:14.870Z,12.23
2023-03-16T06:02:49.348Z,10.25
2023-03-16T06:05:18.066Z,11.70
2023-03-16T06:07:45.302Z,11.90
2023-03-16T06:10:13.103Z,11.48
2023-03-16T06:12:41.356Z,11.68
2023-03-16T06:15:10.396Z,10.50
2023-03-16T06:17:38.522Z,10.60
2023-03-16T06:20:11.387Z,10.82
2023-03-16T06:22:40.068Z,10.85
2023-03-16T06:25:07.984Z,11.63
2023-03-16T06:27:34.761Z,10.98
2023-03-16T06:30:01.765Z,9.75
2023-03-16T06:32:28.955Z,10.20
2023-03-16T06:34:55.837Z,10.50
2023-03-16T06:37:23.238Z,11.57
2023-03-16T06:39:50.116Z,10.65
2023-03-16T06:42:16.953Z,10.80
2023-03-16T06:44:43.733Z,9.75
2023-03-16T06:47:10.613Z,10.85
2023-03-16T06:49:37.676Z,10.85
2023-03-16T06:52:04.946Z,10.38
2023-03-16T06:54:35.636Z,10.27
2023-03-16T06:57:02.405Z,11.03
2023-03-16T06:59:29.915Z,11.25
2023-03-16T07:01:57.025Z,10.85
2023-03-16T07:04:24.259Z,9.05
2023-03-16T07:06:51.538Z,8.55
2023-03-16T07:09:18.410Z,8.57
2023-03-16T07:11:45.186Z,8.68
2023-03-16T07:14:12.088Z,7.38
2023-03-16T07:16:38.908Z,7.10
2023-03-16T07:19:05.827Z,6.80
2023-03-16T07:21:39.398Z,7.07
2023-03-16T07:24:07.582Z,7.75
2023-03-16T07:26:34.384Z,8.00
2023-03-16T07:29:01.487Z,8.55
2023-03-16T07:31:28.468Z,8.25
2023-03-16T07:33:55.246Z,9.55
2023-03-16T07:36:22.039Z,8.63
2023-03-16T07:38:48.919Z,8.15
2023-03-16T07:41:15.660Z,8.52
2023-03-16T07:43:42.430Z,8.73
2023-03-16T07:46:09.210Z,10.05
2023-03-16T07:48:36.156Z,9.32
2023-03-16T07:51:02.950Z,7.97
2023-03-16T07:53:29.707Z,7.78
2023-03-16T07:55:56.467Z,7.95
2023-03-16T07:58:23.336Z,7.80
2023-03-16T13:07:50.851Z,3.13
2023-03-16T13:10:21.078Z,2.50
2023-03-16T13:12:48.444Z,3.13
2023-03-16T13:15:22.348Z,3.28
2023-03-16T13:18:10.549Z,3.13
2023-03-16T13:21:01.052Z,3.88
2023-03-16T13:23:30.269Z,2.08
2023-03-16T13:26:05.824Z,2.50
2023-03-16T13:28:37.009Z,2.40
2023-03-16T13:31:05.059Z,2.60
2023-03-16T13:33:37.024Z,2.83
2023-03-16T13:36:06.520Z,2.65
2023-03-16T13:38:33.484Z,2.65
2023-03-16T13:41:11.832Z,2.40
2023-03-16T13:43:42.825Z,2.22
2023-03-16T13:46:22.612Z,3.13
2023-03-16T13:48:50.508Z,2.05
2023-03-16T13:51:21.318Z,2.42
2023-03-16T13:53:49.451Z,2.33
2023-03-16T13:56:21.478Z,2.70
2023-03-16T13:58:52.245Z,1.90
2023-03-16T14:01:29.637Z,2.57
2023-03-16T14:04:00.602Z,1.92
2023-03-16T14:06:31.516Z,1.92
2023-03-16T14:09:05.286Z,2.53
2023-03-16T14:11:32.294Z,5.00
2023-03-16T14:14:00.696Z,4.65
2023-03-16T14:16:32.203Z,2.45
2023-03-16T14:21:31.923Z,2.22
2023-03-16T14:24:23.643Z,1.90
2023-03-16T14:26:50.446Z,1.85
2023-03-16T14:29:31.230Z,2.25
2023-03-16T14:32:00.227Z,2.20
2023-03-16T14:34:27.116Z,2.17
2023-03-16T14:36:53.954Z,1.70
2023-03-16T14:39:21.862Z,1.67
2023-03-16T14:41:50.212Z,2.20
2023-03-16T14:44:27.077Z,2.17
2023-03-16T14:46:57.537Z,1.92
2023-03-16T14:49:33.863Z,2.10
2023-03-16T14:52:15.463Z,2.15
2023-03-16T14:54:42.244Z,1.90
2023-03-16T14:57:16.992Z,2.13
2023-03-16T14:59:43.878Z,2.67
2023-03-16T15:02:17.776Z,2.35
2023-03-16T15:04:45.847Z,1.95
2023-03-16T15:07:34.881Z,2.25
2023-03-16T15:10:26.958Z,2.03
2023-03-16T15:13:04.481Z,2.10
2023-03-16T15:15:31.798Z,1.92
2023-03-16T15:18:00.019Z,2.25
2023-03-16T15:20:35.388Z,2.08
2023-03-16T15:23:05.106Z,2.50
2023-03-16T15:25:40.790Z,1.60
2023-03-16T15:28:17.745Z,2.13
2023-03-16T15:30:56.733Z,2.63
2023-03-16T15:33:24.697Z,2.67
2023-03-16T15:35:53.641Z,1.88
2023-03-16T15:38:27.622Z,5.32
2023-03-16T15:40:54.576Z,2.35
2023-03-16T15:43:25.033Z,2.65
2023-03-16T15:45:55.084Z,1.90
2023-03-16T15:48:24.658Z,2.75
2023-03-16T15:51:09.245Z,2.92
2023-03-16T15:53:46.126Z,3.83
2023-03-16T15:56:17.800Z,6.45
2023-03-16T16:01:22.627Z,2.35
2023-03-16T16:03:51.222Z,2.22
2023-03-16T16:06:18.362Z,1.92
2023-03-16T16:08:45.138Z,2.10
2023-03-16T16:11:18.159Z,2.13
2023-03-16T16:13:46.389Z,2.30
2023-03-16T16:16:18.382Z,2.47
2023-03-16T16:18:47.711Z,2.78
2023-03-16T16:21:23.209Z,3.65
2023-03-16T16:23:51.895Z,3.53
2023-03-16T16:26:46.978Z,2.90
2023-03-16T16:29:18.609Z,3.55
2023-03-16T16:31:45.745Z,3.03
2023-03-16T16:34:27.487Z,2.47
2023-03-16T16:39:24.249Z,7.60
2023-03-16T16:41:54.327Z,7.30
2023-03-16T16:44:24.867Z,3.55
2023-03-16T16:46:52.484Z,3.90
2023-03-16T16:49:24.183Z,4.18
2023-03-16T16:51:53.186Z,2.42
2023-03-16T16:54:22.793Z,2.80
2023-03-16T16:56:53.299Z,2.20
2023-03-16T16:59:25.238Z,2.25
2023-03-16T17:01:54.871Z,2.35
2023-03-16T17:04:25.543Z,2.40
2023-03-16T17:06:55.971Z,6.25
2023-03-16T17:09:24.306Z,6.95
2023-03-16T17:11:51.765Z,7.57
2023-03-16T17:14:21.396Z,5.95
2023-03-16T17:24:13.853Z,4.53
2023-03-16T17:26:47.163Z,5.63
2023-03-16T17:29:34.006Z,4.57
2023-03-16T17:32:03.807Z,4.47
2023-03-16T17:34:33.620Z,5.03
2023-03-16T17:37:02.093Z,5.60
2023-03-16T17:39:32.967Z,7.28
2023-03-16T17:42:04.309Z,8.52
2023-03-16T17:44:34.903Z,9.60
2023-03-16T17:47:02.726Z,9.63
2023-03-16T17:49:31.357Z,8.80
2023-03-16T17:51:59.096Z,7.45
2023-03-16T17:54:27.698Z,9.15
2023-03-16T17:56:55.298Z,9.60
2023-03-16T17:59:23.850Z,12.02
2023-03-16T18:01:51.878Z,13.30
2023-03-16T18:04:25.471Z,14.70
2023-03-16T18:06:54.206Z,17.75
2023-03-16T18:09:22.874Z,13.93
2023-03-16T18:11:53.370Z,16.52
2023-03-16T18:14:35.886Z,27.58
2023-03-16T18:17:30.717Z,29.55
2023-03-16T18:19:59.357Z,25.83
2023-03-16T18:22:28.486Z,26.50
2023-03-16T18:24:56.786Z,26.00
2023-03-16T18:27:25.096Z,39.90
2023-03-16T18:29:52.503Z,43.97
2023-03-16T18:32:25.575Z,38.22
2023-03-16T18:34:53.927Z,27.40
2023-03-16T18:37:25.217Z,24.40
2023-03-16T18:39:54.639Z,21.80
2023-03-16T18:42:26.033Z,19.30
2023-03-16T18:44:54.017Z,19.48
2023-03-16T18:47:31.883Z,20.08
2023-03-16T18:50:00.479Z,17.35
2023-03-16T18:52:32.723Z,19.30
2023-03-16T18:55:00.246Z,17.90
2023-03-16T18:57:32.383Z,17.13
2023-03-16T19:00:00.114Z,18.33
2023-03-16T19:02:43.193Z,20.40
2023-03-16T19:05:20.882Z,22.95
2023-03-16T19:07:52.637Z,23.95
2023-03-16T19:10:32.678Z,21.25
2023-03-16T19:13:00.694Z,17.80
2023-03-16T19:15:34.656Z,16.33
2023-03-16T19:18:02.963Z,18.27
2023-03-16T19:20:33.706Z,16.63
2023-03-16T19:23:16.790Z,14.20
2023-03-16T19:25:44.714Z,14.35
2023-03-16T19:28:23.558Z,14.38
2023-03-16T19:30:51.232Z,11.20
2023-03-16T19:33:30.941Z,11.27
2023-03-16T19:36:00.652Z,11.50
2023-03-16T19:38:29.202Z,10.15
2023-03-16T19:41:01.280Z,10.57
2023-03-16T19:43:29.759Z,13.15
2023-03-16T19:45:57.998Z,11.68
2023-03-16T19:48:34.829Z,10.52
2023-03-16T19:51:05.080Z,10.85
2023-03-16T19:53:33.414Z,9.90
2023-03-16T19:56:09.208Z,10.32
2023-03-16T19:58:40.413Z,9.32
2023-03-16T20:01:44.080Z,11.82
2023-03-16T20:04:38.838Z,11.13
2023-03-16T20:12:03.894Z,10.05
2023-03-16T20:14:34.080Z,7.82
2023-03-16T20:17:02.166Z,6.32
2023-03-16T20:19:31.271Z,7.57
2023-03-16T20:22:00.171Z,7.78
2023-03-16T20:24:29.540Z,9.40
2023-03-16T20:26:57.395Z,9.68
2023-03-16T20:29:35.010Z,9.35
2023-03-16T20:32:04.247Z,7.43
2023-03-16T20:34:32.843Z,8.25
2023-03-16T20:37:00.786Z,14.02
2023-03-16T20:39:28.808Z,16.90
2023-03-16T20:41:56.631Z,16.05
2023-03-16T20:44:28.721Z,15.27
2023-03-16T20:46:56.958Z,18.50
2023-03-16T20:49:25.762Z,17.60
2023-03-16T20:51:53.778Z,14.50
2023-03-16T20:54:21.166Z,15.43
2023-03-16T20:56:49.800Z,14.98
2023-03-16T20:59:25.388Z,13.07
2023-03-16T21:01:54.879Z,11.73
2023-03-16T21:04:28.345Z,11.10
2023-03-16T21:06:57.350Z,9.90
2023-03-16T21:09:24.677Z,10.98
2023-03-16T21:11:52.606Z,10.38
2023-03-16T21:14:24.857Z,15.18
2023-03-16T21:16:53.409Z,17.83
2023-03-16T21:19:23.090Z,16.45
2023-03-16T21:21:53.748Z,15.88
2023-03-16T21:24:21.299Z,16.83
2023-03-16T21:26:48.189Z,16.88
2023-03-16T21:29:21.452Z,16.85
2023-03-16T21:31:48.725Z,18.17
2023-03-16T21:34:24.657Z,16.33
2023-03-16T21:36:51.692Z,15.15
2023-03-16T21:39:22.700Z,15.57
2023-03-16T21:41:50.964Z,17.08
2023-03-16T21:44:18.622Z,15.57
2023-03-16T21:46:47.470Z,17.23
2023-03-16T21:49:15.072Z,17.63
2023-03-16T21:51:43.388Z,20.08
2023-03-16T21:54:15.455Z,18.92
2023-03-16T21:56:43.106Z,17.73
2023-03-16T21:59:10.891Z,21.20
2023-03-16T22:01:54.362Z,24.23
2023-03-16T22:04:25.334Z,24.08
2023-03-16T22:06:52.434Z,22.75
2023-03-16T22:09:22.553Z,23.85
2023-03-16T22:11:49.831Z,21.17
2023-03-16T22:14:16.615Z,16.58
2023-03-16T22:16:43.612Z,18.60
2023-03-16T22:19:14.706Z,19.80
2023-03-16T22:21:43.924Z,21.23
2023-03-16T22:24:19.579Z,19.33
2023-03-16T22:26:47.746Z,20.05
2023-03-16T22:29:29.377Z,19.92
2023-03-16T22:34:42.828Z,16.92
2023-03-16T22:37:12.625Z,16.50
2023-03-16T22:39:40.613Z,16.55
2023-03-16T22:42:19.444Z,17.65
2023-03-16T22:44:46.250Z,15.95
2023-03-16T22:47:25.124Z,14.23
2023-03-16T22:49:52.566Z,15.90
2023-03-16T22:52:19.743Z,15.63
2023-03-16T22:54:47.025Z,17.02
2023-03-16T22:57:16.948Z,17.15
2023-03-16T22:59:45.886Z,18.55
2023-03-16T23:02:15.456Z,18.08
2023-03-16T23:04:42.533Z,15.20
2023-03-16T23:07:13.632Z,15.85
2023-03-16T23:09:40.827Z,11.45
2023-03-16T23:12:17.623Z,15.63
2023-03-16T23:14:44.424Z,13.82
2023-03-16T23:17:19.607Z,15.90
2023-03-16T23:19:48.277Z,14.73
2023-03-16T23:22:15.692Z,15.60
2023-03-16T23:24:42.603Z,14.45
2023-03-16T23:27:22.509Z,14.32
2023-03-16T23:29:49.515Z,13.88
2023-03-16T23:32:19.539Z,14.82
2023-03-16T23:34:46.544Z,14.90
2023-03-16T23:37:13.350Z,13.73
2023-03-16T23:39:40.151Z,14.38
2023-03-16T23:42:07.693Z,14.63
2023-03-16T23:44:34.850Z,14.40
2023-03-16T23:47:02.258Z,14.95
2023-03-16T23:49:33.116Z,14.38
2023-03-16T23:52:01.752Z,16.27
2023-03-16T23:54:32.008Z,16.10
2023-03-16T23:56:58.913Z,18.73
2023-03-16T23:59:27.504Z,16.80
